sensor_id;sensor_type;location;lat;lon;timestamp;pressure;altitude;pressure_sealevel;temperature;humidity
70781;BME280;72716;48.814;2.126;2024-01-10T12:49:45;100886.13;;;0.50;100.00
70781;BME280;72716;48.814;2.126;2024-01-10T12:52:12;100887.31;;;0.57;100.00
70781;BME280;72716;48.814;2.126;2024-01-10T12:54:38;100882.72;;;0.88;100.00
70781;BME280;72716;48.814;2.126;2024-01-10T12:57:04;100882.66;;;0.68;100.00
70781;BME280;72716;48.814;2.126;2024-01-10T12:59:29;100887.00;;;0.87;98.26
70781;BME280;72716;48.814;2.126;2024-01-10T13:01:55;100889.81;;;1.12;97.43
70781;BME280;72716;48.814;2.126;2024-01-10T13:04:22;100889.44;;;1.22;96.48
70781;BME280;72716;48.814;2.126;2024-01-10T13:06:47;100884.63;;;0.92;94.60
70781;BME280;72716;48.814;2.126;2024-01-10T13:09:13;100884.03;;;0.98;94.33
70781;BME280;72716;48.814;2.126;2024-01-10T13:11:38;100888.28;;;1.15;93.78
70781;BME280;72716;48.814;2.126;2024-01-10T13:14:03;100881.97;;;1.48;94.78
70781;BME280;72716;48.814;2.126;2024-01-10T13:16:29;100876.53;;;1.62;94.17
70781;BME280;72716;48.814;2.126;2024-01-10T13:18:56;100883.78;;;1.51;90.64
70781;BME280;72716;48.814;2.126;2024-01-10T13:21:22;100872.59;;;1.70;91.45
70781;BME280;72716;48.814;2.126;2024-01-10T13:23:48;100876.78;;;1.68;95.86
70781;BME280;72716;48.814;2.126;2024-01-10T13:26:13;100878.84;;;1.97;98.84
70781;BME280;72716;48.814;2.126;2024-01-10T13:28:38;100886.63;;;1.57;100.00
70781;BME280;72716;48.814;2.126;2024-01-10T13:31:05;100880.59;;;1.37;100.00
70781;BME280;72716;48.814;2.126;2024-01-10T13:33:31;100883.38;;;1.21;100.00
70781;BME280;72716;48.814;2.126;2024-01-10T13:35:56;100885.38;;;1.88;100.00
70781;BME280;72716;48.814;2.126;2024-01-10T13:38:21;100875.03;;;2.08;100.00
70781;BME280;72716;48.814;2.126;2024-01-10T13:40:49;100877.28;;;2.22;97.49
70781;BME280;72716;48.814;2.126;2024-01-10T13:43:15;100878.47;;;1.67;93.96
70781;BME280;72716;48.814;2.126;2024-01-10T13:45:41;100879.38;;;2.09;92.91
70781;BME280;72716;48.814;2.126;2024-01-10T13:48:06;100879.16;;;2.26;88.53
70781;BME280;72716;48.814;2.126;2024-01-10T13:50:31;100877.59;;;2.51;89.42
70781;BME280;72716;48.814;2.126;2024-01-10T13:52:58;100885.28;;;2.28;84.65
70781;BME280;72716;48.814;2.126;2024-01-10T13:55:23;100872.75;;;2.16;84.15
70781;BME280;72716;48.814;2.126;2024-01-10T13:57:50;100881.56;;;2.21;87.18
70781;BME280;72716;48.814;2.126;2024-01-10T14:00:16;100878.09;;;2.21;85.27
70781;BME280;72716;48.814;2.126;2024-01-10T14:02:42;100873.63;;;2.38;85.94
70781;BME280;72716;48.814;2.126;2024-01-10T14:05:08;100882.03;;;2.55;82.42
70781;BME280;72716;48.814;2.126;2024-01-10T14:07:35;100872.78;;;2.60;83.55
70781;BME280;72716;48.814;2.126;2024-01-10T14:10:00;100875.72;;;3.15;81.25
70781;BME280;72716;48.814;2.126;2024-01-10T14:12:27;100875.69;;;2.47;80.70
70781;BME280;72716;48.814;2.126;2024-01-10T14:14:53;100878.56;;;2.99;80.13
70781;BME280;72716;48.814;2.126;2024-01-10T14:17:19;100879.97;;;3.38;80.46
70781;BME280;72716;48.814;2.126;2024-01-10T14:19:44;100890.81;;;3.76;78.78
70781;BME280;72716;48.814;2.126;2024-01-10T14:22:10;100887.34;;;3.27;74.79
70781;BME280;72716;48.814;2.126;2024-01-10T14:24:35;100888.81;;;3.45;77.36
70781;BME280;72716;48.814;2.126;2024-01-10T14:27:01;100887.63;;;3.35;77.31
70781;BME280;72716;48.814;2.126;2024-01-10T14:29:26;100890.91;;;3.55;77.19
70781;BME280;72716;48.814;2.126;2024-01-10T14:31:52;100894.56;;;3.60;76.24
70781;BME280;72716;48.814;2.126;2024-01-10T14:34:18;100897.13;;;3.60;75.08
70781;BME280;72716;48.814;2.126;2024-01-10T14:36:44;100913.22;;;3.04;76.89
70781;BME280;72716;48.814;2.126;2024-01-10T14:39:09;100897.22;;;3.37;77.37
70781;BME280;72716;48.814;2.126;2024-01-10T14:41:38;100903.38;;;3.41;76.19
70781;BME280;72716;48.814;2.126;2024-01-10T14:44:04;100895.31;;;3.33;75.84
70781;BME280;72716;48.814;2.126;2024-01-10T14:46:29;100906.13;;;2.54;75.41
70781;BME280;72716;48.814;2.126;2024-01-10T14:48:54;100911.78;;;2.45;76.91
70781;BME280;72716;48.814;2.126;2024-01-10T14:51:20;100904.63;;;2.16;81.35
70781;BME280;72716;48.814;2.126;2024-01-10T14:53:45;100903.44;;;1.88;82.49
70781;BME280;72716;48.814;2.126;2024-01-10T14:56:10;100901.47;;;2.24;83.77
70781;BME280;72716;48.814;2.126;2024-01-10T14:58:36;100899.91;;;1.86;83.08
70781;BME280;72716;48.814;2.126;2024-01-10T15:01:01;100901.94;;;1.93;84.53
70781;BME280;72716;48.814;2.126;2024-01-10T15:03:27;100900.91;;;1.68;85.10
70781;BME280;72716;48.814;2.126;2024-01-10T15:05:52;100901.38;;;1.60;87.60
70781;BME280;72716;48.814;2.126;2024-01-10T15:08:18;100906.16;;;1.12;86.74
70781;BME280;72716;48.814;2.126;2024-01-10T15:10:44;100895.78;;;1.11;88.54
70781;BME280;72716;48.814;2.126;2024-01-10T15:13:10;100907.03;;;0.56;89.92
70781;BME280;72716;48.814;2.126;2024-01-10T15:15:39;100902.22;;;0.64;92.38
70781;BME280;72716;48.814;2.126;2024-01-10T15:18:05;100902.03;;;0.59;93.02
70781;BME280;72716;48.814;2.126;2024-01-10T15:20:30;100904.81;;;0.46;94.68
70781;BME280;72716;48.814;2.126;2024-01-10T15:22:56;100911.03;;;0.33;94.69
70781;BME280;72716;48.814;2.126;2024-01-10T15:25:22;100907.28;;;0.26;95.74
70781;BME280;72716;48.814;2.126;2024-01-10T15:27:48;100903.50;;;0.01;96.53
70781;BME280;72716;48.814;2.126;2024-01-10T15:30:13;100910.81;;;0.10;98.70
70781;BME280;72716;48.814;2.126;2024-01-10T15:32:39;100913.56;;;-0.04;98.55
70781;BME280;72716;48.814;2.126;2024-01-10T15:35:04;100911.00;;;-0.20;98.76
70781;BME280;72716;48.814;2.126;2024-01-10T15:37:30;100912.03;;;-0.17;100.00
70781;BME280;72716;48.814;2.126;2024-01-10T15:39:55;100910.69;;;-0.27;100.00
70781;BME280;72716;48.814;2.126;2024-01-10T15:42:20;100903.59;;;-0.31;100.00
70781;BME280;72716;48.814;2.126;2024-01-10T15:44:46;100902.19;;;-0.42;100.00
70781;BME280;72716;48.814;2.126;2024-01-10T15:47:11;100901.88;;;-0.48;100.00
70781;BME280;72716;48.814;2.126;2024-01-10T15:49:36;100900.00;;;-0.51;100.00
70781;BME280;72716;48.814;2.126;2024-01-10T15:52:02;100908.63;;;-0.51;100.00
70781;BME280;72716;48.814;2.126;2024-01-10T15:54:28;100913.69;;;-0.52;100.00
70781;BME280;72716;48.814;2.126;2024-01-10T15:56:53;100916.31;;;-0.67;100.00
70781;BME280;72716;48.814;2.126;2024-01-10T15:59:18;100918.31;;;-0.78;100.00
70781;BME280;72716;48.814;2.126;2024-01-10T16:01:44;100925.63;;;-0.69;100.00
70781;BME280;72716;48.814;2.126;2024-01-10T16:04:09;100921.28;;;-0.70;100.00
70781;BME280;72716;48.814;2.126;2024-01-10T16:06:35;100934.53;;;-0.79;100.00
70781;BME280;72716;48.814;2.126;2024-01-10T16:09:03;100939.25;;;-0.87;100.00
70781;BME280;72716;48.814;2.126;2024-01-10T16:11:29;100929.84;;;-0.87;100.00
70781;BME280;72716;48.814;2.126;2024-01-10T16:13:55;100939.84;;;-0.91;100.00
70781;BME280;72716;48.814;2.126;2024-01-10T16:16:22;100934.56;;;-0.94;100.00
70781;BME280;72716;48.814;2.126;2024-01-10T16:18:48;100934.41;;;-0.98;100.00
70781;BME280;72716;48.814;2.126;2024-01-10T16:21:13;100938.41;;;-1.03;100.00
70781;BME280;72716;48.814;2.126;2024-01-10T16:23:39;100936.28;;;-1.10;100.00
70781;BME280;72716;48.814;2.126;2024-01-10T16:26:04;100942.84;;;-1.15;100.00
70781;BME280;72716;48.814;2.126;2024-01-10T16:28:30;100947.91;;;-1.17;100.00
70781;BME280;72716;48.814;2.126;2024-01-10T16:30:55;100955.88;;;-1.12;100.00
70781;BME280;72716;48.814;2.126;2024-01-10T16:33:21;100955.88;;;-1.12;100.00
70781;BME280;72716;48.814;2.126;2024-01-10T16:35:46;100948.47;;;-1.23;100.00
70781;BME280;72716;48.814;2.126;2024-01-10T16:38:11;100948.63;;;-1.19;100.00
70781;BME280;72716;48.814;2.126;2024-01-10T16:40:39;100954.53;;;-1.20;100.00
70781;BME280;72716;48.814;2.126;2024-01-10T16:43:04;100951.72;;;-1.25;100.00
70781;BME280;72716;48.814;2.126;2024-01-10T16:45:29;100954.22;;;-1.27;100.00
70781;BME280;72716;48.814;2.126;2024-01-10T16:47:58;100946.50;;;-1.27;100.00
70781;BME280;72716;48.814;2.126;2024-01-10T16:50:23;100935.91;;;-1.33;100.00
70781;BME280;72716;48.814;2.126;2024-01-10T16:52:49;100936.06;;;-1.30;100.00
70781;BME280;72716;48.814;2.126;2024-01-10T16:55:14;100942.78;;;-1.32;100.00
70781;BME280;72716;48.814;2.126;2024-01-10T16:57:40;100945.28;;;-1.33;100.00
70781;BME280;72716;48.814;2.126;2024-01-10T17:00:06;100951.38;;;-1.31;100.00
70781;BME280;72716;48.814;2.126;2024-01-10T17:02:31;100963.34;;;-1.32;100.00
70781;BME280;72716;48.814;2.126;2024-01-10T17:04:57;100964.75;;;-1.37;100.00
70781;BME280;72716;48.814;2.126;2024-01-10T17:07:22;100964.75;;;-1.37;100.00
70781;BME280;72716;48.814;2.126;2024-01-10T17:09:47;100973.25;;;-1.38;100.00
70781;BME280;72716;48.814;2.126;2024-01-10T17:12:16;100971.28;;;-1.12;100.00
70781;BME280;72716;48.814;2.126;2024-01-10T17:14:41;100980.03;;;-0.77;100.00
70781;BME280;72716;48.814;2.126;2024-01-10T17:17:06;100974.03;;;-1.09;100.00
70781;BME280;72716;48.814;2.126;2024-01-10T17:19:32;100979.28;;;-1.23;100.00
70781;BME280;72716;48.814;2.126;2024-01-10T17:21:57;100989.91;;;-1.31;100.00
70781;BME280;72716;48.814;2.126;2024-01-10T17:24:23;100998.13;;;-1.37;100.00
70781;BME280;72716;48.814;2.126;2024-01-10T17:26:48;100998.75;;;-1.41;100.00
70781;BME280;72716;48.814;2.126;2024-01-10T17:29:14;100995.22;;;-1.43;100.00
70781;BME280;72716;48.814;2.126;2024-01-10T17:31:39;100991.66;;;-1.45;100.00
70781;BME280;72716;48.814;2.126;2024-01-10T17:34:04;100988.75;;;-1.52;100.00
